Time;durP1;ratioP1;P1;durP2;ratioP2;P2;SDS_P1;SDS_P2;PMS_P1;PMS_P2;Temp;Humidity;BMP_temperature;BMP_pressure;BME280_temperature;BME280_humidity;BME280_pressure;Samples;Min_cycle;Max_cycle;Signal;HPM_P1;HPM_P2
2022/06/24 00:01:11;;;;;;;;;;;23.00;82.40;;;;;;5000563;28;20006;-95
2022/06/24 00:03:37;;;;;;;;;;;23.00;82.60;;;;;;5000389;28;19945;-96
2022/06/24 00:06:07;;;;;;;;;;;22.90;82.60;;;;;;5000553;28;19951;-96
2022/06/24 00:08:45;;;;;;;;;;;22.90;82.60;;;;;;5002828;28;20388;-96
2022/06/24 00:11:11;;;;;;;;;;;22.80;82.80;;;;;;5001521;28;20009;-96
2022/06/24 00:13:40;;;;;;;;;;;22.80;82.70;;;;;;4999101;28;19969;-96
2022/06/24 00:16:05;;;;;;;;;;;22.80;82.80;;;;;;5000512;28;19944;-96
2022/06/24 00:18:31;;;;;;;;;;;22.70;83.10;;;;;;5000668;28;20297;-96
2022/06/24 00:20:57;;;;;;;;;;;22.60;83.50;;;;;;5000075;28;19976;-96
2022/06/24 00:23:22;;;;;;;;;;;22.50;83.70;;;;;;4999068;28;19941;-95
2022/06/24 00:25:49;;;;;;;;;;;22.30;84.30;;;;;;4999303;28;19987;-96
2022/06/24 00:28:15;;;;;;;;;;;22.30;84.50;;;;;;4999199;28;19951;-96
2022/06/24 00:30:42;;;;;;;;;;;22.40;84.20;;;;;;4999439;28;20035;-96
2022/06/24 00:33:07;;;;;;;;;;;22.40;84.10;;;;;;4998715;28;19989;-96
2022/06/24 00:35:38;;;;;;;;;;;22.40;83.80;;;;;;4998870;28;19939;-96
2022/06/24 00:38:19;;;;;;;;;;;22.50;83.50;;;;;;4999213;28;19965;-96
2022/06/24 00:40:47;;;;;;;;;;;22.50;83.40;;;;;;4998137;28;19950;-96
2022/06/24 00:43:31;;;;;;;;;;;22.40;83.20;;;;;;4998092;28;19956;-96
2022/06/24 00:46:04;;;;;;;;;;;22.40;82.90;;;;;;4997957;28;19953;-96
2022/06/24 00:48:30;;;;;;;;;;;22.40;82.80;;;;;;4999263;28;19941;-96
2022/06/24 00:50:56;;;;;;;;;;;22.50;82.70;;;;;;4998984;28;20063;-96
2022/06/24 00:53:22;;;;;;;;;;;22.50;82.60;;;;;;4999601;28;19948;-96
2022/06/24 00:55:48;;;;;;;;;;;22.40;82.50;;;;;;4999195;28;19946;-96
2022/06/24 00:58:14;;;;;;;;;;;22.50;82.30;;;;;;4999393;28;19944;-96
2022/06/24 01:00:41;;;;;;;;;;;22.40;82.20;;;;;;4998907;28;19977;-96
2022/06/24 01:03:07;;;;;;;;;;;22.40;82.00;;;;;;4995695;28;19944;-96
2022/06/24 01:05:33;;;;;;;;;;;22.40;81.90;;;;;;4997182;28;19937;-96
2022/06/24 01:08:04;;;;;;;;;;;22.40;81.80;;;;;;4996277;28;19985;-96
2022/06/24 01:10:30;;;;;;;;;;;22.40;81.80;;;;;;4996587;28;19967;-96
2022/06/24 01:12:56;;;;;;;;;;;22.40;81.80;;;;;;4998150;28;20027;-96
2022/06/24 01:15:21;;;;;;;;;;;22.30;81.80;;;;;;4998721;28;19936;-96
2022/06/24 01:17:47;;;;;;;;;;;22.30;81.80;;;;;;4999344;28;19944;-96
2022/06/24 01:20:12;;;;;;;;;;;22.30;82.10;;;;;;5000359;28;20400;-96
2022/06/24 01:22:39;;;;;;;;;;;22.30;82.20;;;;;;5000494;28;19970;-96
2022/06/24 01:25:04;;;;;;;;;;;22.20;82.50;;;;;;4999767;28;19945;-96
2022/06/24 01:27:30;;;;;;;;;;;22.20;82.80;;;;;;4999576;28;19971;-96
2022/06/24 01:29:56;;;;;;;;;;;22.10;82.70;;;;;;4999766;28;19944;-96
2022/06/24 01:32:21;;;;;;;;;;;22.10;82.80;;;;;;4997758;28;19949;-96
2022/06/24 01:34:47;;;;;;;;;;;22.00;82.70;;;;;;4998791;28;19950;-96
2022/06/24 01:37:13;;;;;;;;;;;21.80;83.30;;;;;;4996795;28;20012;-96
2022/06/24 01:39:38;;;;;;;;;;;21.60;83.70;;;;;;4998208;28;20413;-96
2022/06/24 01:42:04;;;;;;;;;;;21.60;83.90;;;;;;4997953;28;19943;-96
2022/06/24 01:44:30;;;;;;;;;;;21.50;84.40;;;;;;4998000;28;19943;-96
2022/06/24 01:46:55;;;;;;;;;;;21.50;84.50;;;;;;4996581;28;19947;-96
2022/06/24 01:49:21;;;;;;;;;;;21.50;84.60;;;;;;4997649;28;19953;-96
2022/06/24 01:51:47;;;;;;;;;;;21.50;84.70;;;;;;4997425;28;19962;-96
2022/06/24 01:54:13;;;;;;;;;;;21.60;84.40;;;;;;4997115;28;19940;-96
2022/06/24 01:56:39;;;;;;;;;;;21.60;84.30;;;;;;4996978;28;19948;-96
2022/06/24 01:59:04;;;;;;;;;;;21.60;84.20;;;;;;4996119;28;19947;-96
2022/06/24 02:01:30;;;;;;;;;;;21.60;84.10;;;;;;4996187;28;19951;-96
2022/06/24 02:03:55;;;;;;;;;;;21.50;84.30;;;;;;4997588;28;20421;-96
2022/06/24 02:06:21;;;;;;;;;;;21.50;84.40;;;;;;4997651;28;19944;-96
2022/06/24 02:08:47;;;;;;;;;;;21.40;84.40;;;;;;4997824;28;19945;-96
2022/06/24 02:13:57;;;;;;;;;;;21.40;84.70;;;;;;4997399;28;20119;-96
2022/06/24 02:16:23;;;;;;;;;;;21.30;84.20;;;;;;4996843;28;19997;-96
2022/06/24 02:18:49;;;;;;;;;;;21.30;84.40;;;;;;4995283;28;20381;-96
2022/06/24 02:21:15;;;;;;;;;;;21.30;84.80;;;;;;4995224;28;19949;-96
2022/06/24 02:23:40;;;;;;;;;;;21.30;85.10;;;;;;4994359;28;20361;-96
2022/06/24 02:26:06;;;;;;;;;;;21.30;84.90;;;;;;4995224;28;19952;-95
2022/06/24 02:28:32;;;;;;;;;;;21.10;85.10;;;;;;4995733;28;20035;-96
2022/06/24 02:30:58;;;;;;;;;;;20.90;84.90;;;;;;4996881;28;19986;-95
2022/06/24 02:33:24;;;;;;;;;;;20.90;85.10;;;;;;4999721;28;19944;-96
2022/06/24 02:35:50;;;;;;;;;;;20.80;85.90;;;;;;5000776;28;19950;-96
2022/06/24 02:38:16;;;;;;;;;;;20.80;86.00;;;;;;5000738;28;19966;-96
2022/06/24 02:40:48;;;;;;;;;;;20.80;85.90;;;;;;5001393;28;19994;-96
2022/06/24 02:43:18;;;;;;;;;;;20.80;85.90;;;;;;5000863;28;19993;-96
2022/06/24 02:45:44;;;;;;;;;;;20.80;85.80;;;;;;4999669;28;19953;-96
2022/06/24 02:48:10;;;;;;;;;;;20.80;86.00;;;;;;4999165;28;19957;-96
2022/06/24 02:50:40;;;;;;;;;;;20.80;86.00;;;;;;5000135;28;19966;-96
2022/06/24 02:53:06;;;;;;;;;;;20.70;86.00;;;;;;4999741;28;19950;-96
2022/06/24 02:55:32;;;;;;;;;;;20.60;86.40;;;;;;5000688;28;19949;-96
2022/06/24 02:57:57;;;;;;;;;;;20.70;86.20;;;;;;5000166;28;20490;-96
2022/06/24 03:00:23;;;;;;;;;;;20.70;86.30;;;;;;5001582;28;19946;-96
2022/06/24 03:02:48;;;;;;;;;;;20.70;86.60;;;;;;5002065;28;19946;-96
2022/06/24 03:05:14;;;;;;;;;;;20.70;86.60;;;;;;5000171;28;20011;-96
2022/06/24 03:07:40;;;;;;;;;;;20.70;86.60;;;;;;5002023;28;19946;-96
2022/06/24 03:10:05;;;;;;;;;;;20.60;86.50;;;;;;5000790;28;19939;-96
2022/06/24 03:12:31;;;;;;;;;;;20.50;86.60;;;;;;5001446;28;19947;-96
2022/06/24 03:14:56;;;;;;;;;;;20.50;87.00;;;;;;5001998;28;20290;-96
2022/06/24 03:17:22;;;;;;;;;;;20.40;87.20;;;;;;5001478;28;20460;-96
2022/06/24 03:19:48;;;;;;;;;;;20.30;87.50;;;;;;5003478;28;19946;-96
2022/06/24 03:22:14;;;;;;;;;;;20.30;87.80;;;;;;5001331;28;20374;-96
2022/06/24 03:24:40;;;;;;;;;;;20.30;88.20;;;;;;5002838;28;19941;-96
2022/06/24 03:27:06;;;;;;;;;;;20.30;88.50;;;;;;5002506;28;19965;-96
2022/06/24 03:29:31;;;;;;;;;;;20.30;88.60;;;;;;5003157;28;20019;-96
2022/06/24 03:31:57;;;;;;;;;;;20.30;88.60;;;;;;5002841;28;20029;-96
2022/06/24 03:34:23;;;;;;;;;;;20.30;88.30;;;;;;5002926;28;20004;-96
2022/06/24 03:36:49;;;;;;;;;;;20.20;88.00;;;;;;5005677;28;19936;-96
2022/06/24 03:39:15;;;;;;;;;;;20.20;88.30;;;;;;5005272;28;20396;-96
2022/06/24 03:41:40;;;;;;;;;;;20.30;88.30;;;;;;4998810;28;19937;-96
2022/06/24 03:44:06;;;;;;;;;;;20.40;88.40;;;;;;4996795;28;20433;-96
2022/06/24 03:46:31;;;;;;;;;;;20.30;88.40;;;;;;4998175;28;20041;-96
2022/06/24 03:48:57;;;;;;;;;;;20.30;88.30;;;;;;4999502;28;19939;-96
2022/06/24 03:51:23;;;;;;;;;;;20.40;88.50;;;;;;4999250;28;19959;-96
2022/06/24 03:53:48;;;;;;;;;;;20.40;88.50;;;;;;5007315;28;19953;-96
2022/06/24 03:56:14;;;;;;;;;;;20.50;88.30;;;;;;5008005;28;19950;-96
2022/06/24 03:58:40;;;;;;;;;;;20.60;88.10;;;;;;5007640;28;19952;-96
2022/06/24 04:01:05;;;;;;;;;;;20.50;87.60;;;;;;5009301;28;20019;-96
2022/06/24 04:03:31;;;;;;;;;;;20.60;87.50;;;;;;5011583;28;20015;-96
2022/06/24 04:05:57;;;;;;;;;;;20.60;87.50;;;;;;5009467;28;20357;-96
2022/06/24 04:08:22;;;;;;;;;;;20.70;87.50;;;;;;5008925;28;19991;-96
2022/06/24 04:10:48;;;;;;;;;;;20.80;87.20;;;;;;5007015;28;19962;-96
2022/06/24 04:13:14;;;;;;;;;;;20.80;86.90;;;;;;5008989;28;19986;-96
2022/06/24 04:15:43;;;;;;;;;;;20.80;86.70;;;;;;5008022;28;19945;-96
2022/06/24 04:18:09;;;;;;;;;;;20.90;86.80;;;;;;5008231;28;19948;-96
2022/06/24 04:20:34;;;;;;;;;;;20.80;86.80;;;;;;5008538;28;19941;-96
2022/06/24 04:23:00;;;;;;;;;;;20.60;87.00;;;;;;5007814;28;19988;-96
2022/06/24 04:25:26;;;;;;;;;;;20.50;87.50;;;;;;5007358;28;19959;-96
2022/06/24 04:27:51;;;;;;;;;;;20.60;87.80;;;;;;5009127;28;19944;-96
2022/06/24 04:30:17;;;;;;;;;;;20.80;87.90;;;;;;5001094;28;19985;-96
2022/06/24 04:32:43;;;;;;;;;;;20.80;87.70;;;;;;4999509;28;19942;-96
2022/06/24 04:35:08;;;;;;;;;;;20.80;88.20;;;;;;4999582;28;19941;-96
2022/06/24 04:37:35;;;;;;;;;;;20.80;88.20;;;;;;4999628;28;19946;-96
2022/06/24 04:40:01;;;;;;;;;;;20.90;88.00;;;;;;5000396;28;19940;-95
2022/06/24 04:42:27;;;;;;;;;;;21.00;87.90;;;;;;5000229;28;19976;-96
2022/06/24 04:44:53;;;;;;;;;;;21.10;87.80;;;;;;5003830;28;19941;-96
2022/06/24 04:47:19;;;;;;;;;;;21.10;87.80;;;;;;5005848;28;19992;-96
2022/06/24 04:49:44;;;;;;;;;;;21.20;87.90;;;;;;5009090;28;19937;-96
2022/06/24 04:52:10;;;;;;;;;;;21.10;88.10;;;;;;5007725;28;19988;-96
2022/06/24 04:54:36;;;;;;;;;;;21.10;88.60;;;;;;5008841;28;19949;-96
2022/06/24 04:57:01;;;;;;;;;;;21.10;88.60;;;;;;5009044;28;19949;-96
2022/06/24 04:59:27;;;;;;;;;;;21.20;88.50;;;;;;5011228;28;20002;-96
2022/06/24 05:01:54;;;;;;;;;;;21.20;88.30;;;;;;5009935;28;20400;-96
2022/06/24 05:04:19;;;;;;;;;;;21.30;88.20;;;;;;5010078;28;19945;-96
2022/06/24 05:06:46;;;;;;;;;;;21.30;88.10;;;;;;5010549;28;19981;-96
2022/06/24 05:09:13;;;;;;;;;;;21.40;88.00;;;;;;5012246;28;19957;-96
2022/06/24 05:11:41;;;;;;;;;;;21.50;87.90;;;;;;5011345;28;19971;-96
2022/06/24 05:14:07;;;;;;;;;;;21.60;87.90;;;;;;5010146;28;19954;-96
2022/06/24 05:16:33;;;;;;;;;;;21.70;87.60;;;;;;5011202;28;19951;-96
2022/06/24 05:18:59;;;;;;;;;;;21.80;87.20;;;;;;5010040;28;19945;-96
2022/06/24 05:21:25;;;;;;;;;;;21.90;87.00;;;;;;5010265;28;19940;-96
2022/06/24 05:23:50;;;;;;;;;;;22.00;86.70;;;;;;5009168;28;19942;-96
2022/06/24 05:26:17;;;;;;;;;;;22.20;86.60;;;;;;5009341;28;19961;-96
2022/06/24 05:28:43;;;;;;;;;;;22.30;86.10;;;;;;5004031;28;19984;-96
2022/06/24 05:31:08;;;;;;;;;;;22.30;85.90;;;;;;4999944;28;20348;-96
2022/06/24 05:33:34;;;;;;;;;;;22.50;85.50;;;;;;4999397;28;19982;-96
2022/06/24 05:35:59;;;;;;;;;;;22.60;84.90;;;;;;4999835;28;19948;-95
2022/06/24 05:38:25;;;;;;;;;;;22.80;84.30;;;;;;4996959;28;19958;-96
2022/06/24 05:40:51;;;;;;;;;;;23.00;84.10;;;;;;4997718;28;19944;-96
2022/06/24 05:43:17;;;;;;;;;;;23.00;81.50;;;;;;4998423;28;19946;-96
2022/06/24 05:45:43;;;;;;;;;;;23.20;81.60;;;;;;4998345;28;19965;-96
2022/06/24 05:48:09;;;;;;;;;;;23.30;82.20;;;;;;5003550;28;19997;-96
2022/06/24 05:50:38;;;;;;;;;;;23.30;82.20;;;;;;5004852;28;20310;-96
2022/06/24 05:55:48;;;;;;;;;;;23.40;82.10;;;;;;5000603;28;20383;-96
2022/06/24 05:58:14;;;;;;;;;;;23.50;79.70;;;;;;5000751;28;19946;-96
2022/06/24 06:00:40;;;;;;;;;;;23.50;78.90;;;;;;5004068;28;19957;-96
2022/06/24 06:03:06;;;;;;;;;;;23.60;78.70;;;;;;5010170;28;19953;-96
2022/06/24 06:05:32;;;;;;;;;;;23.70;78.60;;;;;;5010539;28;19942;-96
2022/06/24 06:07:58;;;;;;;;;;;23.80;78.70;;;;;;5009485;28;19957;-96
2022/06/24 06:10:24;;;;;;;;;;;23.90;78.60;;;;;;5009007;28;19964;-96
2022/06/24 06:12:50;;;;;;;;;;;23.90;78.10;;;;;;5011210;28;19949;-96
2022/06/24 06:15:16;;;;;;;;;;;24.00;77.80;;;;;;5009750;28;20315;-96
2022/06/24 06:17:41;;;;;;;;;;;24.10;77.90;;;;;;5010870;28;19947;-96
2022/06/24 06:20:08;;;;;;;;;;;24.10;77.60;;;;;;5011964;28;19942;-96
2022/06/24 06:22:34;;;;;;;;;;;24.10;77.50;;;;;;5010903;28;19973;-96
2022/06/24 06:24:59;;;;;;;;;;;24.20;77.90;;;;;;5009561;28;20021;-96
2022/06/24 06:27:25;;;;;;;;;;;24.30;77.50;;;;;;5008665;28;19961;-96
2022/06/24 06:29:51;;;;;;;;;;;24.30;77.20;;;;;;5006255;28;19937;-96
2022/06/24 06:32:17;;;;;;;;;;;24.40;77.20;;;;;;5007284;28;19984;-96
2022/06/24 06:34:43;;;;;;;;;;;24.50;76.70;;;;;;5007094;28;19946;-96
2022/06/24 06:37:08;;;;;;;;;;;24.50;76.00;;;;;;5006098;28;19953;-96
2022/06/24 06:39:36;;;;;;;;;;;24.60;76.50;;;;;;5005640;28;19967;-96
2022/06/24 06:42:02;;;;;;;;;;;24.60;76.60;;;;;;5008484;28;19946;-96
2022/06/24 06:44:28;;;;;;;;;;;24.60;76.50;;;;;;5006075;28;19941;-96
2022/06/24 06:46:53;;;;;;;;;;;24.70;76.50;;;;;;5004716;28;20026;-96
2022/06/24 06:49:19;;;;;;;;;;;24.70;76.70;;;;;;5005599;28;19949;-96
2022/06/24 06:51:45;;;;;;;;;;;24.70;76.80;;;;;;5005835;28;20126;-96
2022/06/24 06:54:11;;;;;;;;;;;24.80;77.00;;;;;;5002820;28;19945;-96
2022/06/24 06:56:37;;;;;;;;;;;24.80;76.70;;;;;;5002218;28;19956;-96
2022/06/24 06:59:02;;;;;;;;;;;24.90;76.40;;;;;;5003712;28;19944;-96
2022/06/24 07:01:28;;;;;;;;;;;24.90;76.30;;;;;;5003449;28;19953;-96
2022/06/24 07:03:54;;;;;;;;;;;25.00;76.30;;;;;;5002659;28;19955;-96
2022/06/24 07:06:19;;;;;;;;;;;25.10;77.00;;;;;;5001470;28;19986;-96
2022/06/24 07:08:45;;;;;;;;;;;25.10;76.60;;;;;;5001161;28;19943;-96
2022/06/24 07:11:11;;;;;;;;;;;25.20;76.40;;;;;;5005453;28;20332;-96
2022/06/24 07:13:36;;;;;;;;;;;25.20;76.20;;;;;;5009637;28;19946;-96
2022/06/24 07:16:02;;;;;;;;;;;25.30;76.40;;;;;;5007285;28;19948;-96
2022/06/24 07:18:28;;;;;;;;;;;25.40;76.40;;;;;;5007070;28;19967;-96
2022/06/24 07:20:53;;;;;;;;;;;25.40;75.60;;;;;;5005338;28;19946;-96
2022/06/24 07:23:19;;;;;;;;;;;25.50;75.10;;;;;;5002776;28;19988;-96
2022/06/24 07:25:45;;;;;;;;;;;25.50;75.10;;;;;;5002833;28;20420;-96
2022/06/24 07:28:10;;;;;;;;;;;25.50;75.70;;;;;;5000694;28;19948;-96
2022/06/24 07:30:36;;;;;;;;;;;25.50;75.00;;;;;;5008965;23;20024;-96
2022/06/24 07:33:01;;;;;;;;;;;25.60;75.20;;;;;;5002170;28;20319;-96
2022/06/24 07:35:27;;;;;;;;;;;25.70;75.10;;;;;;5001446;28;19953;-96
2022/06/24 07:37:53;;;;;;;;;;;25.80;74.80;;;;;;5005794;28;19937;-96
2022/06/24 07:40:18;;;;;;;;;;;25.80;74.30;;;;;;5009834;28;19937;-96
2022/06/24 07:42:44;;;;;;;;;;;25.80;74.80;;;;;;5010043;28;19952;-96
2022/06/24 07:45:10;;;;;;;;;;;25.90;74.30;;;;;;5008390;28;20374;-96
2022/06/24 07:47:36;;;;;;;;;;;26.00;74.70;;;;;;5007770;28;19950;-96
2022/06/24 07:50:09;;;;;;;;;;;26.10;74.30;;;;;;5008767;28;19946;-96
2022/06/24 07:52:35;;;;;;;;;;;26.10;74.00;;;;;;5010485;28;19942;-96
2022/06/24 07:57:45;;;;;;;;;;;26.20;73.80;;;;;;5009269;28;19943;-96
2022/06/24 08:00:11;;;;;;;;;;;26.30;74.30;;;;;;5009094;28;20023;-96
2022/06/24 08:02:37;;;;;;;;;;;26.30;73.10;;;;;;5009459;28;19956;-96
2022/06/24 08:05:03;;;;;;;;;;;26.40;72.90;;;;;;5007474;28;20289;-96
2022/06/24 08:07:28;;;;;;;;;;;26.40;72.80;;;;;;5010381;28;19940;-96
2022/06/24 08:09:54;;;;;;;;;;;26.50;72.80;;;;;;5006866;28;19949;-96
2022/06/24 08:12:20;;;;;;;;;;;26.60;72.00;;;;;;5005981;28;19967;-96
2022/06/24 08:14:45;;;;;;;;;;;26.60;72.50;;;;;;5001098;28;19993;-96
2022/06/24 08:17:11;;;;;;;;;;;26.60;71.70;;;;;;4999606;28;20043;-96
2022/06/24 08:19:37;;;;;;;;;;;26.80;73.90;;;;;;5000047;28;19945;-96
2022/06/24 08:22:02;;;;;;;;;;;26.90;72.50;;;;;;5001733;28;19939;-96
2022/06/24 08:24:28;;;;;;;;;;;27.00;70.50;;;;;;5002570;28;19945;-96
2022/06/24 08:26:53;;;;;;;;;;;27.10;73.40;;;;;;5003721;28;19956;-96
2022/06/24 08:29:19;;;;;;;;;;;27.20;70.00;;;;;;4995496;28;20392;-95
2022/06/24 08:31:44;;;;;;;;;;;27.30;70.30;;;;;;4996128;28;20522;-95
2022/06/24 08:34:10;;;;;;;;;;;27.40;69.10;;;;;;4995106;28;20412;-94
2022/06/24 08:36:36;;;;;;;;;;;27.50;68.60;;;;;;4996215;28;19971;-95
2022/06/24 08:39:02;;;;;;;;;;;27.60;67.80;;;;;;4996431;28;19955;-95
2022/06/24 08:41:27;;;;;;;;;;;27.60;67.20;;;;;;4996244;28;20285;-94
2022/06/24 08:43:54;;;;;;;;;;;27.60;67.80;;;;;;4996139;28;19941;-94
2022/06/24 08:46:20;;;;;;;;;;;27.50;68.10;;;;;;4996252;28;19938;-95
2022/06/24 08:48:47;;;;;;;;;;;27.70;67.80;;;;;;4996088;28;20295;-94
2022/06/24 08:51:13;;;;;;;;;;;27.70;66.80;;;;;;4994635;28;20439;-95
2022/06/24 08:53:39;;;;;;;;;;;28.00;68.60;;;;;;4995946;28;19938;-95
2022/06/24 08:56:05;;;;;;;;;;;28.20;65.70;;;;;;4995704;28;19946;-96
2022/06/24 08:58:30;;;;;;;;;;;28.30;63.00;;;;;;4996041;28;19943;-95
2022/06/24 09:00:56;;;;;;;;;;;28.30;63.60;;;;;;4995831;28;20035;-95
2022/06/24 09:03:22;;;;;;;;;;;28.50;63.80;;;;;;4995666;28;19952;-95
2022/06/24 09:05:48;;;;;;;;;;;28.50;64.80;;;;;;4994991;28;19940;-95
2022/06/24 09:08:17;;;;;;;;;;;28.50;61.70;;;;;;4995776;28;19940;-95
2022/06/24 09:10:43;;;;;;;;;;;28.50;63.00;;;;;;4995718;28;19988;-95
2022/06/24 09:13:35;;;;;;;;;;;28.60;64.00;;;;;;4995645;28;19983;-95
2022/06/24 09:16:06;;;;;;;;;;;28.40;58.60;;;;;;4991591;28;20038;-95
2022/06/24 09:18:31;;;;;;;;;;;28.10;61.20;;;;;;4995585;28;19941;-94
2022/06/24 09:20:57;;;;;;;;;;;28.00;61.70;;;;;;4995533;28;19969;-95
2022/06/24 09:23:23;;;;;;;;;;;28.10;60.60;;;;;;4995243;28;19945;-96
2022/06/24 09:25:50;;;;;;;;;;;28.20;61.20;;;;;;4995380;28;20056;-95
2022/06/24 09:28:19;;;;;;;;;;;28.20;61.20;;;;;;4994444;28;19951;-95
2022/06/24 09:30:45;;;;;;;;;;;28.30;62.90;;;;;;4995091;28;19972;-95
2022/06/24 09:33:14;;;;;;;;;;;28.40;63.60;;;;;;4995345;28;19941;-94
2022/06/24 09:35:39;;;;;;;;;;;28.50;62.40;;;;;;4995120;28;19943;-95
2022/06/24 09:38:05;;;;;;;;;;;28.70;58.60;;;;;;4995083;28;20007;-96
2022/06/24 09:40:34;;;;;;;;;;;28.70;56.30;;;;;;4995170;28;19945;-95
2022/06/24 09:43:04;;;;;;;;;;;28.80;57.00;;;;;;4995155;28;19946;-95
2022/06/24 09:45:45;;;;;;;;;;;28.80;56.30;;;;;;4995418;28;19969;-95
2022/06/24 09:48:12;;;;;;;;;;;28.80;58.10;;;;;;4994851;28;19945;-95
2022/06/24 09:50:38;;;;;;;;;;;28.80;56.20;;;;;;4994851;28;20043;-95
2022/06/24 09:53:04;;;;;;;;;;;28.70;56.40;;;;;;4994972;28;20375;-96
2022/06/24 09:55:30;;;;;;;;;;;28.70;57.00;;;;;;4994668;28;19947;-95
2022/06/24 09:57:58;;;;;;;;;;;28.80;57.20;;;;;;4994603;28;19952;-95
2022/06/24 10:00:42;;;;;;;;;;;28.80;55.90;;;;;;4994689;28;19941;-94
2022/06/24 10:03:09;;;;;;;;;;;28.70;57.20;;;;;;4994643;28;20088;-95
2022/06/24 10:05:43;;;;;;;;;;;28.80;57.20;;;;;;4993919;28;20409;-94
2022/06/24 10:08:10;;;;;;;;;;;28.90;58.30;;;;;;4994654;28;19938;-95
2022/06/24 10:10:38;;;;;;;;;;;29.00;57.90;;;;;;4994511;28;19963;-95
2022/06/24 10:13:07;;;;;;;;;;;29.10;56.30;;;;;;4994701;28;19989;-95
2022/06/24 10:15:32;;;;;;;;;;;29.00;55.60;;;;;;4995032;28;19950;-96
2022/06/24 10:18:00;;;;;;;;;;;28.90;54.70;;;;;;4993215;28;19947;-95
2022/06/24 10:20:26;;;;;;;;;;;29.10;55.70;;;;;;4994588;28;20502;-96
2022/06/24 10:22:51;;;;;;;;;;;29.20;54.90;;;;;;4994390;28;19955;-95
2022/06/24 10:25:18;;;;;;;;;;;29.10;57.70;;;;;;4994331;28;19951;-95
2022/06/24 10:27:58;;;;;;;;;;;29.20;55.80;;;;;;4994454;28;20408;-95
2022/06/24 10:30:39;;;;;;;;;;;29.20;55.90;;;;;;4994079;28;19985;-94
2022/06/24 10:33:15;;;;;;;;;;;29.30;54.70;;;;;;4994390;28;20040;-95
2022/06/24 10:35:59;;;;;;;;;;;29.20;52.50;;;;;;4994488;28;19942;-94
2022/06/24 10:38:26;;;;;;;;;;;29.20;52.80;;;;;;4994597;28;19944;-94
2022/06/24 10:40:52;;;;;;;;;;;29.30;52.70;;;;;;4994364;28;19947;-95
2022/06/24 10:43:36;;;;;;;;;;;29.30;51.60;;;;;;4994312;28;19941;-95
2022/06/24 10:46:11;;;;;;;;;;;29.30;52.50;;;;;;4995714;28;20013;-94
2022/06/24 10:48:57;;;;;;;;;;;29.40;53.10;;;;;;4998374;28;19939;-94
2022/06/24 10:51:23;;;;;;;;;;;29.40;54.50;;;;;;4998230;28;19959;-94
2022/06/24 10:54:01;;;;;;;;;;;29.60;53.90;;;;;;4997050;28;19941;-94
2022/06/24 10:56:44;;;;;;;;;;;29.70;53.90;;;;;;4996549;28;20285;-94
2022/06/24 10:59:10;;;;;;;;;;;29.90;54.20;;;;;;4998106;28;19938;-94
2022/06/24 11:01:35;;;;;;;;;;;29.90;50.40;;;;;;4998031;28;19940;-94
2022/06/24 11:04:03;;;;;;;;;;;30.20;51.30;;;;;;4998065;28;19956;-94
2022/06/24 11:06:28;;;;;;;;;;;30.20;45.50;;;;;;4998000;28;19941;-95
2022/06/24 11:08:54;;;;;;;;;;;30.20;44.40;;;;;;4997996;28;19937;-95
2022/06/24 11:11:29;;;;;;;;;;;30.20;44.90;;;;;;4998425;28;19963;-95
2022/06/24 11:13:54;;;;;;;;;;;30.30;47.20;;;;;;4998186;28;19946;-95
2022/06/24 11:16:20;;;;;;;;;;;30.50;45.40;;;;;;4997876;28;20360;-95
2022/06/24 11:18:49;;;;;;;;;;;30.60;45.60;;;;;;4997673;28;20350;-94
2022/06/24 11:21:17;;;;;;;;;;;30.60;42.60;;;;;;4997905;28;19946;-95
2022/06/24 11:23:45;;;;;;;;;;;30.50;40.40;;;;;;4998053;28;20285;-95
2022/06/24 11:26:10;;;;;;;;;;;30.40;41.60;;;;;;4997358;28;19964;-94
2022/06/24 11:28:37;;;;;;;;;;;30.40;42.30;;;;;;4996203;28;20381;-95
2022/06/24 11:31:15;;;;;;;;;;;30.20;42.60;;;;;;4997310;28;19976;-95
2022/06/24 11:33:41;;;;;;;;;;;30.30;42.50;;;;;;4997454;28;19937;-95
2022/06/24 11:36:07;;;;;;;;;;;30.40;43.00;;;;;;4997343;28;20286;-95
2022/06/24 11:38:36;;;;;;;;;;;30.60;42.50;;;;;;4995962;28;19987;-93
2022/06/24 11:41:02;;;;;;;;;;;30.50;40.50;;;;;;4997432;28;19937;-95
2022/06/24 11:43:27;;;;;;;;;;;30.50;38.70;;;;;;4997207;28;20005;-94
2022/06/24 11:45:57;;;;;;;;;;;30.80;40.10;;;;;;4997219;28;20469;-94
2022/06/24 11:48:24;;;;;;;;;;;30.60;39.20;;;;;;4997154;28;19947;-94
2022/06/24 11:50:53;;;;;;;;;;;30.60;39.90;;;;;;4997398;28;19961;-95
2022/06/24 11:53:27;;;;;;;;;;;30.50;39.50;;;;;;4997250;28;19952;-95
2022/06/24 11:55:54;;;;;;;;;;;30.50;40.40;;;;;;4996458;28;19965;-94
2022/06/24 11:58:20;;;;;;;;;;;30.80;40.40;;;;;;4996382;28;19943;-94
2022/06/24 12:00:46;;;;;;;;;;;31.10;39.20;;;;;;4996947;28;19942;-94
2022/06/24 12:03:12;;;;;;;;;;;31.40;41.50;;;;;;4995494;28;19942;-94
2022/06/24 12:05:39;;;;;;;;;;;31.40;36.20;;;;;;4996984;28;19945;-96
2022/06/24 12:08:05;;;;;;;;;;;31.50;37.20;;;;;;4996735;28;19949;-94
2022/06/24 12:10:30;;;;;;;;;;;31.30;36.40;;;;;;4996683;28;20313;-94
2022/06/24 12:13:00;;;;;;;;;;;31.30;37.10;;;;;;4997089;28;20030;-95
2022/06/24 12:15:28;;;;;;;;;;;31.60;36.60;;;;;;4996929;28;19940;-94
2022/06/24 12:17:54;;;;;;;;;;;31.90;37.20;;;;;;4996687;28;19952;-94
2022/06/24 12:20:26;;;;;;;;;;;32.20;35.60;;;;;;4995381;28;20322;-94
2022/06/24 12:23:12;;;;;;;;;;;32.00;36.60;;;;;;4996492;28;19946;-94
2022/06/24 12:25:40;;;;;;;;;;;32.10;37.20;;;;;;4995999;28;19957;-95
2022/06/24 12:28:12;;;;;;;;;;;32.20;35.30;;;;;;4996541;28;19938;-94
2022/06/24 12:30:38;;;;;;;;;;;32.20;34.50;;;;;;4996147;28;19975;-94
2022/06/24 12:33:03;;;;;;;;;;;32.20;35.80;;;;;;4996376;28;20399;-95
2022/06/24 12:35:32;;;;;;;;;;;31.80;35.80;;;;;;4996449;28;19941;-94
2022/06/24 12:37:58;;;;;;;;;;;31.30;36.40;;;;;;4976989;28;19938;-94
2022/06/24 12:40:23;;;;;;;;;;;31.10;37.60;;;;;;4976997;28;20419;-94
2022/06/24 12:43:05;;;;;;;;;;;31.50;37.60;;;;;;4976936;28;19938;-94
2022/06/24 12:45:33;;;;;;;;;;;31.80;36.20;;;;;;4980293;28;20016;-94
2022/06/24 12:50:43;;;;;;;;;;;32.30;36.20;;;;;;4995993;28;19960;-94
2022/06/24 12:53:10;;;;;;;;;;;32.40;36.10;;;;;;4995957;28;19944;-95
2022/06/24 12:55:36;;;;;;;;;;;32.50;36.90;;;;;;4994470;28;20360;-95
2022/06/24 12:58:01;;;;;;;;;;;32.60;35.60;;;;;;4996128;28;19997;-96
2022/06/24 13:00:28;;;;;;;;;;;32.40;35.30;;;;;;4996088;28;19944;-96
2022/06/24 13:02:54;;;;;;;;;;;32.70;35.60;;;;;;4996150;28;19991;-95
2022/06/24 13:05:21;;;;;;;;;;;33.00;35.80;;;;;;4995713;28;20324;-95
2022/06/24 13:07:47;;;;;;;;;;;33.10;34.80;;;;;;4995475;28;19949;-95
2022/06/24 13:10:13;;;;;;;;;;;33.50;36.00;;;;;;4995551;28;19943;-94
2022/06/24 13:12:38;;;;;;;;;;;33.60;33.90;;;;;;4995271;28;19969;-95
2022/06/24 13:15:05;;;;;;;;;;;33.70;35.00;;;;;;4995038;28;20397;-95
2022/06/24 13:17:30;;;;;;;;;;;34.20;34.50;;;;;;4994310;28;20000;-95
2022/06/24 13:19:56;;;;;;;;;;;34.00;34.40;;;;;;4993948;28;19969;-95
2022/06/24 13:22:22;;;;;;;;;;;33.90;35.30;;;;;;4995273;28;20394;-95
2022/06/24 13:24:48;;;;;;;;;;;34.50;35.40;;;;;;4995058;28;19951;-96
2022/06/24 13:27:13;;;;;;;;;;;34.60;34.10;;;;;;4995058;28;20333;-95
2022/06/24 13:29:39;;;;;;;;;;;34.70;32.80;;;;;;4994486;28;20308;-94
2022/06/24 13:32:05;;;;;;;;;;;34.40;32.60;;;;;;4994985;28;19982;-94
2022/06/24 13:34:31;;;;;;;;;;;33.90;33.50;;;;;;4993807;28;20032;-94
2022/06/24 13:36:56;;;;;;;;;;;34.50;33.40;;;;;;4995121;28;20011;-95
2022/06/24 13:39:22;;;;;;;;;;;34.70;31.70;;;;;;4994833;28;19939;-95
2022/06/24 13:41:47;;;;;;;;;;;34.20;33.20;;;;;;4994314;28;20052;-94
2022/06/24 13:44:13;;;;;;;;;;;34.30;33.50;;;;;;4994610;28;20355;-94
2022/06/24 13:46:39;;;;;;;;;;;34.50;33.00;;;;;;4995033;28;20411;-94
2022/06/24 13:49:05;;;;;;;;;;;34.80;32.00;;;;;;4994729;28;20042;-96
2022/06/24 13:51:30;;;;;;;;;;;35.20;31.80;;;;;;4994297;28;19965;-96
2022/06/24 13:53:57;;;;;;;;;;;35.00;32.50;;;;;;4994654;28;19934;-95
2022/06/24 13:56:22;;;;;;;;;;;35.10;32.60;;;;;;4994696;28;19952;-95
2022/06/24 13:58:48;;;;;;;;;;;35.60;32.20;;;;;;4994878;28;19937;-96
2022/06/24 14:01:15;;;;;;;;;;;36.50;30.60;;;;;;4993487;28;20047;-96
2022/06/24 14:03:40;;;;;;;;;;;37.00;29.60;;;;;;4994659;28;19945;-95
2022/06/24 14:06:06;;;;;;;;;;;36.30;29.80;;;;;;4994868;28;19947;-95
2022/06/24 14:08:32;;;;;;;;;;;35.70;28.50;;;;;;4994358;28;19970;-95
2022/06/24 14:10:57;;;;;;;;;;;35.60;28.50;;;;;;4994482;28;20103;-94
2022/06/24 14:13:23;;;;;;;;;;;35.80;29.40;;;;;;4994472;28;19938;-96
2022/06/24 14:15:49;;;;;;;;;;;35.60;28.40;;;;;;4994156;28;19940;-96
2022/06/24 14:18:15;;;;;;;;;;;35.30;29.20;;;;;;4994372;28;19943;-96
2022/06/24 14:20:41;;;;;;;;;;;35.10;29.20;;;;;;4993175;28;20296;-95
2022/06/24 14:25:51;;;;;;;;;;;35.10;30.20;;;;;;4994455;28;20440;-95
2022/06/24 14:28:16;;;;;;;;;;;35.00;27.60;;;;;;4994617;28;20028;-96